Time;durP1;ratioP1;P1;durP2;ratioP2;P2;SDS_P1;SDS_P2;PMS_P1;PMS_P2;Temp;Humidity;BMP_temperature;BMP_pressure;BME280_temperature;BME280_humidity;BME280_pressure;Samples;Min_cycle;Max_cycle;Signal;HPM_P1;HPM_P2
2022/01/05 00:01:20;;;;;;;;;;;205.10;2252.80;;;;;;4941611;29;19910;-75
2022/01/05 00:03:46;;;;;;;;;;;205.00;2252.80;;;;;;4958624;29;19907;-80
2022/01/05 00:06:11;;;;;;;;;;;205.00;2252.80;;;;;;4958053;29;19906;-81
2022/01/05 00:08:37;;;;;;;;;;;204.90;2252.80;;;;;;4941070;29;19953;-78
2022/01/05 00:11:02;;;;;;;;;;;204.90;2252.80;;;;;;4940677;29;19913;-81
2022/01/05 00:13:28;;;;;;;;;;;205.00;2252.80;;;;;;4958361;29;19906;-79
2022/01/05 00:15:54;;;;;;;;;;;204.90;2252.80;;;;;;4958339;29;19930;-79
2022/01/05 00:18:19;;;;;;;;;;;204.90;2252.80;;;;;;4943587;29;19914;-80
2022/01/05 00:20:45;;;;;;;;;;;204.80;2252.80;;;;;;4939026;29;20286;-80
2022/01/05 00:23:11;;;;;;;;;;;180.10;2252.80;;;;;;4939126;29;19970;-76
2022/01/05 00:25:36;;;;;;;;;;;180.10;2252.80;;;;;;4939052;29;20387;-82
2022/01/05 00:28:02;;;;;;;;;;;180.10;2252.80;;;;;;4945972;29;19910;-78
2022/01/05 00:30:28;;;;;;;;;;;180.00;2252.80;;;;;;4949022;29;19914;-79
2022/01/05 00:32:53;;;;;;;;;;;180.00;2252.80;;;;;;4948837;29;19942;-79
2022/01/05 00:35:19;;;;;;;;;;;179.90;2252.80;;;;;;4947353;29;20001;-76
2022/01/05 00:37:45;;;;;;;;;;;179.90;2252.80;;;;;;4949429;29;19960;-79
2022/01/05 00:40:10;;;;;;;;;;;179.90;2252.80;;;;;;4969396;28;19918;-78
2022/01/05 00:42:36;;;;;;;;;;;179.90;2252.80;;;;;;4965006;28;20374;-75
2022/01/05 00:45:02;;;;;;;;;;;180.10;2252.80;;;;;;4965131;28;19949;-76
2022/01/05 00:47:28;;;;;;;;;;;204.90;2252.80;;;;;;4964674;28;19906;-79
2022/01/05 00:49:54;;;;;;;;;;;204.90;2252.80;;;;;;4967768;28;20013;-81
2022/01/05 00:52:19;;;;;;;;;;;204.80;2252.80;;;;;;4965673;28;19907;-76
2022/01/05 00:54:45;;;;;;;;;;;180.00;2252.80;;;;;;4965853;28;19907;-80
2022/01/05 00:57:11;;;;;;;;;;;180.10;2252.80;;;;;;4966422;28;20417;-78
2022/01/05 00:59:37;;;;;;;;;;;204.80;2252.80;;;;;;4967545;28;19922;-79
2022/01/05 01:02:02;;;;;;;;;;;204.90;2252.80;;;;;;4968862;28;20286;-80
2022/01/05 01:04:28;;;;;;;;;;;205.00;2252.80;;;;;;4966930;28;19906;-79
2022/01/05 01:06:54;;;;;;;;;;;205.10;2252.80;;;;;;4967399;28;19914;-76
2022/01/05 01:09:19;;;;;;;;;;;205.10;2252.80;;;;;;4965382;28;19911;-79
2022/01/05 01:11:45;;;;;;;;;;;205.20;2252.80;;;;;;4984436;28;19910;-78
2022/01/05 01:14:11;;;;;;;;;;;205.30;2252.80;;;;;;4965345;28;19969;-78
2022/01/05 01:16:36;;;;;;;;;;;205.20;2252.80;;;;;;4967465;28;19906;-81
2022/01/05 01:19:02;;;;;;;;;;;205.10;2252.80;;;;;;4967774;28;19914;-77
2022/01/05 01:21:28;;;;;;;;;;;205.10;2252.80;;;;;;4966456;28;19907;-79
2022/01/05 01:23:56;;;;;;;;;;;204.80;2252.80;;;;;;4965678;28;20286;-79
2022/01/05 01:26:22;;;;;;;;;;;180.10;2252.80;;;;;;4965410;28;19906;-81
2022/01/05 01:28:48;;;;;;;;;;;180.10;2252.80;;;;;;4968112;28;19988;-80
2022/01/05 01:31:14;;;;;;;;;;;180.00;2252.80;;;;;;4968103;28;19906;-79
2022/01/05 01:33:40;;;;;;;;;;;180.00;2252.80;;;;;;4965256;28;19907;-81
2022/01/05 01:36:05;;;;;;;;;;;180.00;2252.80;;;;;;4965295;28;19917;-81
2022/01/05 01:38:31;;;;;;;;;;;180.10;2252.80;;;;;;4965707;28;20258;-75
2022/01/05 01:40:57;;;;;;;;;;;180.00;2252.80;;;;;;4967108;28;19926;-79
2022/01/05 01:43:22;;;;;;;;;;;180.00;2252.80;;;;;;4968888;28;19914;-80
2022/01/05 01:45:48;;;;;;;;;;;180.00;2252.80;;;;;;4949070;28;19913;-75
2022/01/05 01:48:14;;;;;;;;;;;180.00;2252.80;;;;;;4966697;28;19977;-81
2022/01/05 01:50:39;;;;;;;;;;;180.00;2252.80;;;;;;4964904;28;20318;-79
2022/01/05 01:53:05;;;;;;;;;;;179.90;2252.80;;;;;;4949307;28;20278;-82
2022/01/05 01:55:31;;;;;;;;;;;179.80;2252.80;;;;;;4947092;28;19910;-82
2022/01/05 01:57:56;;;;;;;;;;;179.70;2252.80;;;;;;4966423;28;19965;-80
2022/01/05 02:00:22;;;;;;;;;;;179.70;2252.80;;;;;;4965021;28;19917;-78
2022/01/05 02:02:48;;;;;;;;;;;179.70;2252.80;;;;;;4966364;28;19906;-81
2022/01/05 02:05:13;;;;;;;;;;;179.80;2252.80;;;;;;4956059;28;19906;-78
2022/01/05 02:07:39;;;;;;;;;;;179.80;2252.80;;;;;;4964710;28;19910;-80
2022/01/05 02:10:06;;;;;;;;;;;179.90;2252.80;;;;;;4950041;28;20405;-79
2022/01/05 02:12:31;;;;;;;;;;;179.80;2252.80;;;;;;4969034;28;19929;-78
2022/01/05 02:14:57;;;;;;;;;;;179.80;2252.80;;;;;;4964835;28;20354;-78
2022/01/05 02:17:30;;;;;;;;;;;179.70;2252.80;;;;;;4966425;28;19984;-80
2022/01/05 02:19:56;;;;;;;;;;;179.80;2252.80;;;;;;4956128;28;20400;-79
2022/01/05 02:22:22;;;;;;;;;;;179.90;2252.80;;;;;;4964650;28;19912;-78
2022/01/05 02:24:48;;;;;;;;;;;179.90;2252.80;;;;;;4951341;28;19906;-79
2022/01/05 02:27:14;;;;;;;;;;;180.10;2252.80;;;;;;4965595;28;19906;-81
2022/01/05 02:29:39;;;;;;;;;;;204.80;2252.80;;;;;;4966794;28;20013;-78
2022/01/05 02:32:05;;;;;;;;;;;204.80;2252.80;;;;;;4965484;28;20362;-81
2022/01/05 02:34:31;;;;;;;;;;;204.80;2252.80;;;;;;4965574;28;19913;-80
2022/01/05 02:36:57;;;;;;;;;;;180.10;2252.80;;;;;;4963869;28;19914;-79
2022/01/05 02:39:22;;;;;;;;;;;204.90;2252.80;;;;;;4966308;28;19940;-79
2022/01/05 02:41:49;;;;;;;;;;;205.00;2252.80;;;;;;4947567;28;19961;-79
2022/01/05 02:44:14;;;;;;;;;;;204.90;2252.80;;;;;;4965022;28;20392;-75
2022/01/05 02:46:40;;;;;;;;;;;179.90;2252.80;;;;;;4946603;28;19914;-78
2022/01/05 02:49:05;;;;;;;;;;;180.10;2252.80;;;;;;4966075;28;19996;-77
2022/01/05 02:51:31;;;;;;;;;;;179.90;2252.80;;;;;;4965203;28;19914;-80
2022/01/05 02:53:56;;;;;;;;;;;180.00;2252.80;;;;;;4964770;28;19913;-78
2022/01/05 02:56:22;;;;;;;;;;;180.10;2252.80;;;;;;4948718;28;19932;-75
2022/01/05 02:58:48;;;;;;;;;;;179.90;2252.80;;;;;;4964618;28;20354;-77
2022/01/05 03:01:13;;;;;;;;;;;180.10;2252.80;;;;;;4965410;28;19910;-80
2022/01/05 03:03:39;;;;;;;;;;;204.90;2252.80;;;;;;4966263;28;20374;-83
2022/01/05 03:06:05;;;;;;;;;;;205.10;2252.80;;;;;;4964393;28;19913;-83
2022/01/05 03:08:30;;;;;;;;;;;205.20;2252.80;;;;;;4969656;28;19914;-79
2022/01/05 03:10:56;;;;;;;;;;;205.10;2252.80;;;;;;4968584;28;20408;-79
2022/01/05 03:13:23;;;;;;;;;;;204.90;2252.80;;;;;;4969532;28;19926;-80
2022/01/05 03:15:50;;;;;;;;;;;179.90;2252.80;;;;;;4968442;28;19906;-81
2022/01/05 03:18:15;;;;;;;;;;;179.80;2252.80;;;;;;4968840;28;19925;-80
2022/01/05 03:20:41;;;;;;;;;;;179.80;2252.80;;;;;;4960049;28;20333;-81
2022/01/05 03:23:06;;;;;;;;;;;179.90;2252.80;;;;;;4969886;28;19906;-82
2022/01/05 03:25:32;;;;;;;;;;;179.80;2252.80;;;;;;4958181;28;19954;-81
2022/01/05 03:27:58;;;;;;;;;;;179.90;2252.80;;;;;;4969021;28;20358;-77
2022/01/05 03:30:25;;;;;;;;;;;179.90;2252.80;;;;;;4966665;28;19945;-80
2022/01/05 03:35:20;;;;;;;;;;;179.70;2252.80;;;;;;4967786;28;20392;-80
2022/01/05 03:37:45;;;;;;;;;;;179.70;2252.80;;;;;;4952412;28;19949;-79
2022/01/05 03:40:11;;;;;;;;;;;179.70;2252.80;;;;;;4967821;28;20370;-79
2022/01/05 03:42:37;;;;;;;;;;;179.50;2252.80;;;;;;4964513;28;20049;-79
2022/01/05 03:45:02;;;;;;;;;;;179.50;2252.80;;;;;;4969623;28;19914;-79
2022/01/05 03:47:28;;;;;;;;;;;179.40;2252.80;;;;;;4956099;28;20340;-78
2022/01/05 03:49:54;;;;;;;;;;;179.40;2252.80;;;;;;4968464;28;19914;-78
2022/01/05 03:52:19;;;;;;;;;;;179.40;2252.80;;;;;;4969061;28;19997;-77
2022/01/05 03:54:45;;;;;;;;;;;179.50;2252.80;;;;;;4967399;28;19906;-80
2022/01/05 03:57:10;;;;;;;;;;;179.50;2252.80;;;;;;4968659;28;19910;-80
2022/01/05 03:59:36;;;;;;;;;;;179.50;2252.80;;;;;;4968326;28;19942;-81
2022/01/05 04:02:02;;;;;;;;;;;179.60;2252.80;;;;;;4967168;28;19906;-80
2022/01/05 04:04:27;;;;;;;;;;;179.60;2252.80;;;;;;4969173;28;19912;-79
2022/01/05 04:06:53;;;;;;;;;;;179.60;2252.80;;;;;;4967792;28;19913;-78
2022/01/05 04:09:18;;;;;;;;;;;179.60;2252.80;;;;;;4967586;28;19913;-77
2022/01/05 04:11:44;;;;;;;;;;;179.60;2252.80;;;;;;4970637;28;19909;-78
2022/01/05 04:14:10;;;;;;;;;;;179.60;2252.80;;;;;;4949939;28;19906;-81
2022/01/05 04:16:36;;;;;;;;;;;179.60;2252.80;;;;;;4967718;28;19964;-79
2022/01/05 04:19:02;;;;;;;;;;;179.50;2252.80;;;;;;4958325;28;19919;-80
2022/01/05 04:21:27;;;;;;;;;;;179.50;2252.80;;;;;;4949591;28;19911;-75
2022/01/05 04:23:53;;;;;;;;;;;179.50;2252.80;;;;;;4952323;28;19914;-80
2022/01/05 04:26:18;;;;;;;;;;;179.50;2252.80;;;;;;4969484;28;20318;-80
2022/01/05 04:28:44;;;;;;;;;;;179.40;2252.80;;;;;;4969039;28;20009;-79
2022/01/05 04:31:10;;;;;;;;;;;179.40;2252.80;;;;;;4966785;28;19907;-79
2022/01/05 04:33:35;;;;;;;;;;;179.40;2252.80;;;;;;4967845;28;19949;-79
2022/01/05 04:36:01;;;;;;;;;;;179.40;2252.80;;;;;;4968045;28;19954;-79
2022/01/05 04:38:26;;;;;;;;;;;179.40;2252.80;;;;;;4966504;28;19921;-79
2022/01/05 04:40:52;;;;;;;;;;;179.50;2252.80;;;;;;4968212;28;20397;-79
2022/01/05 04:43:18;;;;;;;;;;;179.50;2252.80;;;;;;4967429;28;19907;-78
2022/01/05 04:45:43;;;;;;;;;;;180.00;2252.80;;;;;;4966479;28;20369;-80
2022/01/05 04:48:09;;;;;;;;;;;179.80;2252.80;;;;;;4968338;28;19913;-79
2022/01/05 04:50:34;;;;;;;;;;;179.80;2252.80;;;;;;4966808;28;19910;-77
2022/01/05 04:53:00;;;;;;;;;;;179.90;2252.80;;;;;;4966913;28;19980;-80
2022/01/05 04:55:25;;;;;;;;;;;179.80;2252.80;;;;;;4968029;28;19910;-79
2022/01/05 04:57:51;;;;;;;;;;;179.70;2252.80;;;;;;4966185;28;19937;-79
2022/01/05 05:00:17;;;;;;;;;;;179.60;2252.80;;;;;;4967145;28;20330;-76
2022/01/05 05:02:42;;;;;;;;;;;179.70;2252.80;;;;;;4967919;28;19907;-80
2022/01/05 05:05:08;;;;;;;;;;;179.70;2252.80;;;;;;4966133;28;19997;-79
2022/01/05 05:07:34;;;;;;;;;;;179.70;2252.80;;;;;;4968649;28;20251;-80
2022/01/05 05:09:59;;;;;;;;;;;179.60;2252.80;;;;;;4966641;28;19906;-79
2022/01/05 05:12:25;;;;;;;;;;;179.50;2252.80;;;;;;4969341;28;19954;-79
2022/01/05 05:14:50;;;;;;;;;;;179.40;2252.80;;;;;;4965826;28;19961;-79
2022/01/05 05:17:16;;;;;;;;;;;179.40;2252.80;;;;;;4967007;28;20008;-79
2022/01/05 05:19:42;;;;;;;;;;;179.30;2252.80;;;;;;4964929;28;20294;-79
2022/01/05 05:22:07;;;;;;;;;;;179.40;2252.80;;;;;;4967564;28;19917;-80
2022/01/05 05:24:33;;;;;;;;;;;179.30;2252.80;;;;;;4965360;28;19996;-80
2022/01/05 05:26:58;;;;;;;;;;;179.20;2252.80;;;;;;4966493;28;19907;-80
2022/01/05 05:29:24;;;;;;;;;;;179.20;2252.80;;;;;;4965966;28;19906;-79
2022/01/05 05:31:50;;;;;;;;;;;179.20;2252.80;;;;;;4957806;28;20256;-80
2022/01/05 05:34:15;;;;;;;;;;;179.30;2252.80;;;;;;4966962;28;20266;-79
2022/01/05 05:36:41;;;;;;;;;;;179.30;2252.80;;;;;;4966831;28;20000;-81
2022/01/05 05:39:07;;;;;;;;;;;179.30;2252.80;;;;;;4950075;28;19926;-77
2022/01/05 05:41:32;;;;;;;;;;;179.30;2252.80;;;;;;4966320;28;20421;-77
2022/01/05 05:43:58;;;;;;;;;;;179.40;2252.80;;;;;;4964776;28;19913;-78
2022/01/05 05:46:23;;;;;;;;;;;179.40;2252.80;;;;;;4966591;28;19913;-79
2022/01/05 05:48:49;;;;;;;;;;;179.40;2252.80;;;;;;4967620;28;19961;-79
2022/01/05 05:51:15;;;;;;;;;;;179.40;2252.80;;;;;;4965368;28;19914;-77
2022/01/05 05:53:40;;;;;;;;;;;179.40;2252.80;;;;;;4965947;28;19906;-79
2022/01/05 05:56:06;;;;;;;;;;;179.40;2252.80;;;;;;4968317;28;19933;-78
2022/01/05 05:58:31;;;;;;;;;;;179.40;2252.80;;;;;;4964875;28;19914;-78
2022/01/05 06:00:57;;;;;;;;;;;179.50;2252.80;;;;;;4966443;28;20317;-79
2022/01/05 06:03:23;;;;;;;;;;;179.50;2252.80;;;;;;4964949;28;19906;-79
2022/01/05 06:05:48;;;;;;;;;;;179.50;2252.80;;;;;;4965066;28;20470;-79
2022/01/05 06:08:14;;;;;;;;;;;179.50;2252.80;;;;;;4981585;28;19914;-80
2022/01/05 06:10:39;;;;;;;;;;;179.60;2252.80;;;;;;4965774;28;19907;-79
2022/01/05 06:13:05;;;;;;;;;;;179.50;2252.80;;;;;;4980061;28;19906;-79
2022/01/05 06:15:32;;;;;;;;;;;179.50;2252.80;;;;;;4966816;28;20262;-79
2022/01/05 06:17:57;;;;;;;;;;;179.50;2252.80;;;;;;4963838;28;19906;-77
2022/01/05 06:20:23;;;;;;;;;;;179.60;2252.80;;;;;;4965281;28;19914;-79
2022/01/05 06:22:49;;;;;;;;;;;179.60;2252.80;;;;;;4966586;28;19977;-77
2022/01/05 06:25:14;;;;;;;;;;;179.60;2252.80;;;;;;4963592;28;19936;-78
2022/01/05 06:27:40;;;;;;;;;;;179.60;2252.80;;;;;;4972760;28;19906;-80
2022/01/05 06:30:07;;;;;;;;;;;179.60;2252.80;;;;;;4966294;28;20358;-78
2022/01/05 06:32:41;;;;;;;;;;;179.60;2252.80;;;;;;4964708;28;19993;-80
2022/01/05 06:35:06;;;;;;;;;;;179.80;2252.80;;;;;;4964984;28;19906;-76
2022/01/05 06:37:32;;;;;;;;;;;179.90;2252.80;;;;;;4966238;28;20337;-79
2022/01/05 06:39:58;;;;;;;;;;;179.80;2252.80;;;;;;4963555;28;19982;-80
2022/01/05 06:42:23;;;;;;;;;;;180.00;2252.80;;;;;;4966484;28;19950;-76
2022/01/05 06:44:49;;;;;;;;;;;180.10;2252.80;;;;;;4971900;28;19996;-78
2022/01/05 06:47:15;;;;;;;;;;;180.10;2252.80;;;;;;4970645;28;19942;-76
2022/01/05 06:49:40;;;;;;;;;;;180.10;2252.80;;;;;;4971593;28;19921;-80
2022/01/05 06:52:06;;;;;;;;;;;180.10;2252.80;;;;;;4972059;28;19906;-78
2022/01/05 06:54:32;;;;;;;;;;;180.10;2252.80;;;;;;4970369;28;19906;-86
2022/01/05 06:56:58;;;;;;;;;;;204.80;2252.80;;;;;;4970985;28;19914;-79
2022/01/05 06:59:23;;;;;;;;;;;180.10;2252.80;;;;;;4971309;28;20009;-77
2022/01/05 07:01:49;;;;;;;;;;;204.80;2252.80;;;;;;4972129;28;19913;-77
2022/01/05 07:04:15;;;;;;;;;;;204.80;2252.80;;;;;;4970149;28;19989;-79
2022/01/05 07:06:41;;;;;;;;;;;204.80;2252.80;;;;;;4971659;28;19909;-77
2022/01/05 07:09:07;;;;;;;;;;;204.90;2252.80;;;;;;4971793;28;19929;-76
2022/01/05 07:11:32;;;;;;;;;;;204.90;2252.80;;;;;;4969859;28;20274;-76
2022/01/05 07:13:58;;;;;;;;;;;205.00;2252.80;;;;;;4969572;28;19906;-79
2022/01/05 07:16:24;;;;;;;;;;;205.10;2252.80;;;;;;4971535;28;19906;-78
2022/01/05 07:18:50;;;;;;;;;;;205.20;2252.80;;;;;;4970415;28;20009;-77
2022/01/05 07:21:15;;;;;;;;;;;205.40;2252.80;;;;;;4972298;28;19921;-79
2022/01/05 07:23:41;;;;;;;;;;;205.50;2252.80;;;;;;4970270;28;19912;-80
2022/01/05 07:26:06;;;;;;;;;;;205.70;2252.80;;;;;;4971127;28;19930;-78
2022/01/05 07:28:32;;;;;;;;;;;230.40;2252.80;;;;;;4971420;28;19906;-80
2022/01/05 07:30:58;;;;;;;;;;;230.40;2252.80;;;;;;4970513;28;20385;-78
2022/01/05 07:33:24;;;;;;;;;;;230.50;2252.80;;;;;;4969384;28;19906;-79
2022/01/05 07:35:50;;;;;;;;;;;230.60;2252.80;;;;;;4970306;28;19913;-80
2022/01/05 07:38:16;;;;;;;;;;;230.60;2252.80;;;;;;4971844;28;19914;-76
2022/01/05 07:40:42;;;;;;;;;;;230.70;2252.80;;;;;;4970518;28;19919;-76
2022/01/05 07:43:07;;;;;;;;;;;230.70;2252.80;;;;;;4970478;28;19913;-77
2022/01/05 07:45:35;;;;;;;;;;;230.70;2252.80;;;;;;4962118;28;19910;-77
2022/01/05 07:48:04;;;;;;;;;;;230.80;2252.80;;;;;;4970279;28;19906;-77
2022/01/05 07:50:30;;;;;;;;;;;230.90;2252.80;;;;;;4970056;28;19914;-78
2022/01/05 07:52:55;;;;;;;;;;;231.00;2252.80;;;;;;4973931;28;19974;-77
2022/01/05 07:55:21;;;;;;;;;;;231.00;2252.80;;;;;;4966101;28;19914;-76
2022/01/05 07:57:46;;;;;;;;;;;231.10;2252.80;;;;;;4966733;28;19913;-76
2022/01/05 08:00:12;;;;;;;;;;;231.30;2252.80;;;;;;4966418;28;19914;-84
2022/01/05 08:02:38;;;;;;;;;;;256.10;2252.80;;;;;;4968221;28;19913;-76
2022/01/05 08:05:04;;;;;;;;;;;256.20;2252.80;;;;;;4950400;28;19962;-76
2022/01/05 08:07:30;;;;;;;;;;;256.20;2252.80;;;;;;4965302;28;19914;-76
2022/01/05 08:09:55;;;;;;;;;;;256.40;2252.80;;;;;;4951133;28;20281;-76
2022/01/05 08:12:21;;;;;;;;;;;256.50;2252.80;;;;;;4951189;28;19918;-76
2022/01/05 08:14:47;;;;;;;;;;;256.70;2252.80;;;;;;4957542;28;20302;-76
2022/01/05 08:17:12;;;;;;;;;;;256.70;2252.80;;;;;;4948738;28;19907;-76
2022/01/05 08:19:38;;;;;;;;;;;256.60;2252.80;;;;;;4950265;28;19968;-76
2022/01/05 08:22:03;;;;;;;;;;;256.60;2252.80;;;;;;4967194;28;19906;-76
2022/01/05 08:24:29;;;;;;;;;;;256.60;2252.80;;;;;;4967833;28;20282;-75
2022/01/05 08:26:54;;;;;;;;;;;256.60;2252.80;;;;;;4959036;28;19914;-76
2022/01/05 08:29:20;;;;;;;;;;;256.60;2252.80;;;;;;4968056;28;20362;-78
2022/01/05 08:31:46;;;;;;;;;;;256.60;2252.80;;;;;;4966829;28;19913;-77
2022/01/05 08:34:11;;;;;;;;;;;256.80;2252.80;;;;;;4968048;28;19914;-75
2022/01/05 08:36:37;;;;;;;;;;;256.80;2252.80;;;;;;4966009;28;20314;-77
2022/01/05 08:39:03;;;;;;;;;;;256.80;2252.80;;;;;;4966876;28;19918;-76
2022/01/05 08:41:28;;;;;;;;;;;256.90;2252.80;;;;;;4967571;28;19914;-77
2022/01/05 08:43:54;;;;;;;;;;;256.90;2252.80;;;;;;4948554;28;20278;-76
2022/01/05 08:46:20;;;;;;;;;;;281.60;2278.40;;;;;;4967513;28;20001;-77
2022/01/05 08:48:46;;;;;;;;;;;281.70;2278.40;;;;;;4967300;28;19921;-78
2022/01/05 08:51:12;;;;;;;;;;;281.90;2278.40;;;;;;4965689;28;19930;-78
2022/01/05 08:53:37;;;;;;;;;;;282.00;2278.40;;;;;;4968390;28;19906;-80
2022/01/05 08:56:03;;;;;;;;;;;282.10;2278.40;;;;;;4967068;28;19929;-81
2022/01/05 08:58:29;;;;;;;;;;;282.30;2278.40;;;;;;4950136;28;19961;-77
2022/01/05 09:00:54;;;;;;;;;;;282.50;2278.40;;;;;;4948852;28;19913;-80
2022/01/05 09:03:20;;;;;;;;;;;282.50;2278.40;;;;;;4966346;28;19913;-77
2022/01/05 09:05:45;;;;;;;;;;;307.20;2304.00;;;;;;4966629;28;20378;-78
2022/01/05 09:08:11;;;;;;;;;;;307.30;2304.00;;;;;;4965664;28;20017;-76
2022/01/05 09:10:37;;;;;;;;;;;307.30;2304.00;;;;;;4967434;28;19914;-77
2022/01/05 09:13:04;;;;;;;;;;;307.30;2304.00;;;;;;4948733;28;19913;-76
2022/01/05 09:15:30;;;;;;;;;;;307.30;2304.00;;;;;;4964467;28;19929;-76
2022/01/05 09:17:55;;;;;;;;;;;307.30;2304.00;;;;;;4966230;28;19945;-76
2022/01/05 09:20:21;;;;;;;;;;;307.50;2304.00;;;;;;4965493;28;19965;-76
2022/01/05 09:22:46;;;;;;;;;;;307.60;2304.00;;;;;;4965787;28;19910;-76
2022/01/05 09:25:14;;;;;;;;;;;307.60;2304.00;;;;;;4956911;28;20374;-75
2022/01/05 09:27:40;;;;;;;;;;;307.60;2304.00;;;;;;4947866;28;20263;-76
2022/01/05 09:30:07;;;;;;;;;;;307.70;2304.00;;;;;;4965973;28;19913;-76
2022/01/05 09:32:32;;;;;;;;;;;307.60;2304.00;;;;;;4966691;28;19907;-77
2022/01/05 09:34:58;;;;;;;;;;;307.60;2304.00;;;;;;4964870;28;19913;-75
2022/01/05 09:37:27;;;;;;;;;;;307.60;2304.00;;;;;;4966065;28;19906;-76
2022/01/05 09:42:38;;;;;;;;;;;307.60;2304.00;;;;;;4966765;28;20021;-76
2022/01/05 09:45:18;;;;;;;;;;;307.60;2304.00;;;;;;4965329;28;20278;-77
2022/01/05 09:47:44;;;;;;;;;;;307.60;2304.00;;;;;;4965226;28;19915;-77
2022/01/05 09:50:13;;;;;;;;;;;307.60;2304.00;;;;;;4965172;28;20333;-78
2022/01/05 09:52:41;;;;;;;;;;;307.60;2304.00;;;;;;4966757;28;19906;-78
2022/01/05 09:55:07;;;;;;;;;;;307.70;2304.00;;;;;;4967127;28;19914;-77
2022/01/05 09:57:33;;;;;;;;;;;307.80;2304.00;;;;;;4964752;28;19910;-77
2022/01/05 09:59:59;;;;;;;;;;;307.80;2304.00;;;;;;4966098;28;19930;-77
2022/01/05 10:02:25;;;;;;;;;;;307.90;2304.00;;;;;;4963820;28;20319;-78
2022/01/05 10:04:51;;;;;;;;;;;307.90;2304.00;;;;;;4963660;28;20274;-77
2022/01/05 10:07:17;;;;;;;;;;;307.80;2304.00;;;;;;4964885;28;19906;-76
2022/01/05 10:09:44;;;;;;;;;;;307.90;2304.00;;;;;;4964599;28;19913;-76
2022/01/05 10:12:11;;;;;;;;;;;308.00;2304.00;;;;;;4965001;28;20319;-76
2022/01/05 10:14:40;;;;;;;;;;;308.00;2304.00;;;;;;4964617;28;19957;-76
2022/01/05 10:17:07;;;;;;;;;;;308.10;2304.00;;;;;;4962903;28;19988;-77
2022/01/05 10:19:34;;;;;;;;;;;332.80;2329.60;;;;;;4964212;28;19975;-77
2022/01/05 10:22:00;;;;;;;;;;;332.90;2329.60;;;;;;4966189;28;19913;-78
2022/01/05 10:24:50;;;;;;;;;;;333.00;2329.60;;;;;;4963298;28;20465;-77
2022/01/05 10:27:17;;;;;;;;;;;333.00;2329.60;;;;;;4925588;29;20449;-77
2022/01/05 10:29:52;;;;;;;;;;;333.10;2329.60;;;;;;4910076;29;20359;-77
2022/01/05 10:32:18;;;;;;;;;;;333.10;2329.60;;;;;;4923643;29;19914;-77
2022/01/05 10:34:57;;;;;;;;;;;333.00;2329.60;;;;;;4925427;29;19906;-77
2022/01/05 10:37:24;;;;;;;;;;;333.00;2329.60;;;;;;4925801;29;19907;-80
2022/01/05 10:39:57;;;;;;;;;;;333.00;2329.60;;;;;;4924748;29;19919;-77
2022/01/05 10:42:29;;;;;;;;;;;333.00;2329.60;;;;;;4923764;29;19914;-77
2022/01/05 10:44:54;;;;;;;;;;;333.20;2329.60;;;;;;4923688;29;20319;-78
2022/01/05 10:47:20;;;;;;;;;;;333.20;2329.60;;;;;;4909359;29;19915;-77
2022/01/05 10:49:46;;;;;;;;;;;333.20;2329.60;;;;;;4923793;29;20351;-76
2022/01/05 10:52:22;;;;;;;;;;;333.20;2329.60;;;;;;4924170;29;19914;-76
2022/01/05 10:54:48;;;;;;;;;;;333.20;2329.60;;;;;;4925427;29;20038;-76
2022/01/05 10:57:14;;;;;;;;;;;333.10;2329.60;;;;;;4924824;29;20007;-75
2022/01/05 10:59:42;;;;;;;;;;;333.20;2329.60;;;;;;4923018;29;19915;-76
2022/01/05 11:02:26;;;;;;;;;;;333.10;2329.60;;;;;;4924605;29;19914;-76
2022/01/05 11:04:52;;;;;;;;;;;333.20;2329.60;;;;;;4955909;28;19914;-77
2022/01/05 11:07:19;;;;;;;;;;;333.30;2329.60;;;;;;4963986;28;20355;-77
2022/01/05 11:09:59;;;;;;;;;;;333.40;2329.60;;;;;;4978459;28;19906;-75
2022/01/05 11:12:41;;;;;;;;;;;333.60;2329.60;;;;;;4964329;28;19960;-75
2022/01/05 11:15:26;;;;;;;;;;;358.40;2329.60;;;;;;4963383;28;20251;-76
2022/01/05 11:18:12;;;;;;;;;;;358.60;2329.60;;;;;;4966749;28;19910;-75
2022/01/05 11:20:39;;;;;;;;;;;358.70;2329.60;;;;;;4965512;28;20386;-76
2022/01/05 11:23:05;;;;;;;;;;;358.80;2329.60;;;;;;4964811;28;20006;-76
2022/01/05 11:25:31;;;;;;;;;;;358.90;2329.60;;;;;;4955934;28;20380;-76
2022/01/05 11:27:57;;;;;;;;;;;359.00;2329.60;;;;;;4955263;29;19910;-76
2022/01/05 11:30:23;;;;;;;;;;;359.10;2329.60;;;;;;4957330;28;19949;-78
2022/01/05 11:32:49;;;;;;;;;;;359.30;2329.60;;;;;;4957741;29;19970;-76
2022/01/05 11:35:15;;;;;;;;;;;384.20;2329.60;;;;;;4957540;29;19973;-76
2022/01/05 11:37:41;;;;;;;;;;;384.30;2329.60;;;;;;4959043;29;20337;-76
2022/01/05 11:40:07;;;;;;;;;;;384.10;2329.60;;;;;;4958617;28;19922;-75
2022/01/05 11:42:35;;;;;;;;;;;384.00;2329.60;;;;;;4958605;29;20354;-76
2022/01/05 11:45:01;;;;;;;;;;;384.10;2329.60;;;;;;4958727;29;19913;-75
2022/01/05 11:47:30;;;;;;;;;;;359.30;2329.60;;;;;;4958567;29;19910;-77
2022/01/05 11:50:15;;;;;;;;;;;384.00;2329.60;;;;;;4957035;29;19914;-76
2022/01/05 11:53:00;;;;;;;;;;;384.30;2329.60;;;;;;4958311;29;19997;-76
2022/01/05 11:55:30;;;;;;;;;;;384.40;2329.60;;;;;;4941308;29;19966;-76
2022/01/05 11:58:15;;;;;;;;;;;384.50;2329.60;;;;;;4941253;28;20362;-78
2022/01/05 12:00:41;;;;;;;;;;;384.40;2329.60;;;;;;4958323;29;19922;-75
2022/01/05 12:03:06;;;;;;;;;;;384.30;2329.60;;;;;;4941165;29;19918;-75
2022/01/05 12:05:55;;;;;;;;;;;384.30;2329.60;;;;;;4941332;29;20314;-76
2022/01/05 12:08:40;;;;;;;;;;;384.20;2329.60;;;;;;4899153;29;19912;-77
2022/01/05 12:11:25;;;;;;;;;;;384.10;2329.60;;;;;;4908168;29;20035;-77
2022/01/05 12:13:51;;;;;;;;;;;384.10;2329.60;;;;;;4923862;29;19915;-77
2022/01/05 12:16:16;;;;;;;;;;;384.10;2329.60;;;;;;4931325;29;19911;-76
2022/01/05 12:18:43;;;;;;;;;;;384.10;2329.60;;;;;;4924610;29;20415;-75
2022/01/05 12:21:28;;;;;;;;;;;384.10;2329.60;;;;;;4908494;29;19915;-76
2022/01/05 12:23:54;;;;;;;;;;;384.10;2329.60;;;;;;4902064;29;19907;-77
2022/01/05 12:26:20;;;;;;;;;;;384.00;2329.60;;;;;;4901011;29;19907;-77
2022/01/05 12:28:50;;;;;;;;;;;384.00;2329.60;;;;;;4907560;29;19934;-76
2022/01/05 12:31:17;;;;;;;;;;;384.00;2329.60;;;;;;4926185;29;19931;-77
2022/01/05 12:33:44;;;;;;;;;;;384.00;2329.60;;;;;;4925954;29;20243;-76
2022/01/05 12:36:09;;;;;;;;;;;359.30;2329.60;;;;;;4927147;29;20006;-76
2022/01/05 12:38:45;;;;;;;;;;;359.30;2329.60;;;;;;4910626;29;20013;-76
2022/01/05 12:41:31;;;;;;;;;;;359.20;2329.60;;;;;;4906647;29;19911;-77
2022/01/05 12:43:58;;;;;;;;;;;359.20;2329.60;;;;;;4904938;29;19916;-77
2022/01/05 12:46:44;;;;;;;;;;;359.20;2329.60;;;;;;4942912;29;20359;-76
2022/01/05 12:49:13;;;;;;;;;;;359.20;2329.60;;;;;;4941876;29;19911;-75
2022/01/05 12:51:44;;;;;;;;;;;359.10;2329.60;;;;;;4938076;29;20310;-74
2022/01/05 12:54:18;;;;;;;;;;;359.10;2329.60;;;;;;4937434;29;19961;-76
2022/01/05 12:56:51;;;;;;;;;;;359.00;2329.60;;;;;;4940222;29;20310;-77
2022/01/05 12:59:23;;;;;;;;;;;359.00;2329.60;;;;;;4956972;29;19922;-76
2022/01/05 13:01:51;;;;;;;;;;;359.00;2329.60;;;;;;4957158;29;19906;-76
2022/01/05 13:04:18;;;;;;;;;;;359.00;2329.60;;;;;;4957066;29;19933;-76
2022/01/05 13:06:44;;;;;;;;;;;358.90;2329.60;;;;;;4957016;29;19962;-75
2022/01/05 13:09:14;;;;;;;;;;;358.90;2329.60;;;;;;4948481;29;19990;-76
2022/01/05 13:11:44;;;;;;;;;;;358.90;2329.60;;;;;;4920505;29;20327;-76
2022/01/05 13:14:24;;;;;;;;;;;358.80;2329.60;;;;;;4920653;29;20293;-76
2022/01/05 13:17:01;;;;;;;;;;;358.80;2329.60;;;;;;4920433;29;19922;-76
2022/01/05 13:19:41;;;;;;;;;;;358.80;2329.60;;;;;;4920286;29;20060;-75
2022/01/05 13:22:07;;;;;;;;;;;358.80;2329.60;;;;;;4937493;29;19918;-76
2022/01/05 13:24:43;;;;;;;;;;;358.80;2329.60;;;;;;4937515;29;20379;-76
2022/01/05 13:27:09;;;;;;;;;;;358.80;2329.60;;;;;;4935664;29;20004;-76
2022/01/05 13:29:35;;;;;;;;;;;359.00;2329.60;;;;;;4956655;29;20367;-76
2022/01/05 13:32:02;;;;;;;;;;;358.80;2329.60;;;;;;4956400;29;19913;-76
2022/01/05 13:34:28;;;;;;;;;;;358.80;2329.60;;;;;;4938998;29;20016;-76
2022/01/05 13:36:54;;;;;;;;;;;358.80;2329.60;;;;;;4956430;29;19906;-76
2022/01/05 13:39:34;;;;;;;;;;;358.80;2329.60;;;;;;4947334;29;19941;-76
2022/01/05 13:42:00;;;;;;;;;;;358.80;2329.60;;;;;;4937355;29;19911;-75
2022/01/05 13:44:26;;;;;;;;;;;358.80;2329.60;;;;;;4937180;29;19914;-74
2022/01/05 13:46:51;;;;;;;;;;;358.80;2329.60;;;;;;4936974;29;19906;-73